• Join FlightAware (Why Join?)
  • Login
  • US Flag 
11:49AM EST


 

Airport Tracker/Info


-or-


 

Live Flight TrackerFlight Track Log ✈ AAY846 ✈ 22-Mar-2014 ✈ KPIE - KPIA

Flight Track Log - Related Links

Times and Time Zones

All times are in EDT time to prevent confusion due to time zone crossing. See the AAY846 flight status page for this flight to view local times or setup timezone preferences in your user account.

Time Position Orientation Groundspeed Altitude Reporting Facility
EDT Latitude Longitude Course Direction KTS MPH feet Rate Location/Type
08:12AM 27.9000 -82.6833 180° South 156 180 600  Level Tampa TRACON
08:13AM 27.8500 -82.6833 180° South 200 230 2,300 2,160 Climbing Tampa TRACON
08:14AM 27.8333 -82.7167 241° Southwest 221 254 4,800 2,100 Climbing Tampa TRACON
08:15AM 27.8833 -82.7667 319° Northwest 259 298 6,800 1,800 Climbing Tampa TRACON
08:17AM 28.0561 -82.8386 340° North 280 322 11,400 1,680 Climbing Jacksonville Center
08:18AM 28.1603 -82.8197 North 319 367 12,700 1,860 Climbing Jacksonville Center
08:19AM 28.2731 -82.7983 North 373 429 15,200 2,220 Climbing Jacksonville Center
08:20AM 28.3836 -82.8172 351° North 388 447 17,200 1,920 Climbing Jacksonville Center
08:21AM 28.4881 -82.8689 337° Northwest 388 447 19,100 1,740 Climbing Jacksonville Center
08:22AM 28.5986 -82.9139 340° North 406 467 20,700 2,220 Climbing Jacksonville Center
08:24AM 28.8008 -83.0419 331° Northwest 400 460 25,800 2,040 Climbing Jacksonville Center
08:25AM 28.8906 -83.1036 329° Northwest 383 441 26,900 1,200 Climbing Jacksonville Center
08:26AM 28.9803 -83.1725 326° Northwest 378 435 28,300 1,380 Climbing Jacksonville Center
08:27AM 29.0697 -83.2369 328° Northwest 378 435 29,700 1,140 Climbing Jacksonville Center
08:28AM 29.1572 -83.3039 326° Northwest 378 435 30,600 780 Climbing Jacksonville Center
08:29AM 29.2447 -83.3708 326° Northwest 378 435 31,300 600 Climbing Jacksonville Center
08:30AM 29.3322 -83.4428 324° Northwest 378 435 31,900 300 Climbing Jacksonville Center
08:31AM 29.4258 -83.5078 329° Northwest 383 441 32,000  Climbing Jacksonville Center
08:32AM 29.5028 -83.5703 325° Northwest 388 447 32,000  Level Jacksonville Center
08:33AM 29.5919 -83.6378 327° Northwest 383 441 32,000  Level Jacksonville Center
08:34AM 29.6794 -83.7031 327° Northwest 383 441 32,000  Level Jacksonville Center
08:35AM 29.7686 -83.7706 327° Northwest 383 441 32,000  Level Jacksonville Center
08:36AM 29.8539 -83.8361 326° Northwest 378 435 32,000  Level Jacksonville Center
08:37AM 29.9431 -83.9017 328° Northwest 378 435 32,000  Level Jacksonville Center
08:38AM 30.0281 -83.9675 326° Northwest 378 435 32,000  Level Jacksonville Center
08:39AM 30.1153 -84.0331 327° Northwest 372 428 32,000  Level Jacksonville Center
08:40AM 30.1981 -84.0992 325° Northwest 372 428 32,000  Level Jacksonville Center
08:41AM 30.2853 -84.1650 327° Northwest 372 428 32,000  Level Jacksonville Center
08:42AM 30.3703 -84.2311 326° Northwest 372 428 32,000  Level Jacksonville Center
08:43AM 30.4550 -84.2950 327° Northwest 372 428 32,000  Level Jacksonville Center
08:44AM 30.5358 -84.3614 325° Northwest 366 421 32,000  Level Jacksonville Center
08:45AM 30.6378 -84.3944 344° North 366 421 32,000  Level Jacksonville Center
08:46AM 30.7375 -84.4344 341° North 371 427 32,000  Level Jacksonville Center
08:47AM 30.8414 -84.4678 345° North 377 434 32,000  Level Jacksonville Center
08:48AM 30.9536 -84.5083 343° North 377 434 32,000  Level Jacksonville Center
08:49AM 31.0575 -84.5392 346° North 377 434 32,000  Level Jacksonville Center
08:50AM 31.1614 -84.5775 342° North 377 434 32,000  Level Jacksonville Center
08:51AM 31.2656 -84.6061 347° North 377 434 32,000  Level Jacksonville Center
08:53AM 31.4758 -84.6769 344° North 380 437 32,000  Level Atlanta Center
08:54AM 31.5778 -84.7142 343° North 380 437 32,000  Level Atlanta Center
08:55AM 31.6842 -84.7442 347° North 380 437 32,000  Level Atlanta Center
08:56AM 31.7819 -84.7817 342° North 380 437 32,000  Level Atlanta Center
08:57AM 31.8842 -84.8117 346° North 380 437 32,000  Level Atlanta Center
08:58AM 31.9819 -84.8494 342° North 368 423 32,000  Level Atlanta Center
08:59AM 32.0819 -84.8772 347° North 363 418 32,000  Level Atlanta Center
09:00AM 32.1778 -84.9150 342° North 363 418 32,000  Level Atlanta Center
09:01AM 32.2858 -84.9456 347° North 363 418 32,000  Level Atlanta Center
09:02AM 32.3817 -84.9783 344° North 356 410 32,000  Level Atlanta Center
09:03AM 32.4858 -85.0139 344° North 361 415 32,000  Level Atlanta Center
09:04AM 32.5858 -85.0472 344° North 372 428 32,000  Level Atlanta Center
09:05AM 32.6814 -85.0803 344° North 379 436 32,000  Level Atlanta Center
09:06AM 32.7753 -85.1086 346° North 347 399 32,000  Level Atlanta Center
09:07AM 32.8811 -85.1569 339° North 377 434 32,000  Level Atlanta Center
09:08AM 32.9811 -85.1828 348° North 371 427 32,000  Level Atlanta Center
09:09AM 33.0831 -85.2264 340° North 380 437 32,000  Level Atlanta Center
09:10AM 33.1767 -85.2697 339° North 370 426 32,000  Level Atlanta Center
09:11AM 33.2806 -85.3161 340° North 370 426 32,000  Level Atlanta Center
09:12AM 33.3758 -85.3647 337° Northwest 370 426 32,000  Level Atlanta Center
09:13AM 33.4736 -85.4036 342° North 368 423 32,000  Level Atlanta Center
09:14AM 33.5650 -85.4522 336° Northwest 368 423 32,000  Level Atlanta Center
09:15AM 33.6647 -85.4939 341° North 368 423 32,000  Level Atlanta Center
09:16AM 33.7581 -85.5406 337° Northwest 368 423 32,000  Level Atlanta Center
09:17AM 33.8597 -85.5822 341° North 368 423 32,000  Level Atlanta Center
09:18AM 33.9550 -85.6317 337° Northwest 368 423 32,000  Level Atlanta Center
09:19AM 34.0444 -85.6683 341° North 373 429 32,000  Level Atlanta Center
09:20AM 34.1397 -85.7178 337° Northwest 368 423 32,000  Level Atlanta Center
09:21AM 34.2392 -85.7625 340° North 373 429 32,000  Level Atlanta Center
09:22AM 34.3389 -85.8125 338° Northwest 379 436 32,000  Level Atlanta Center
09:23AM 34.4444 -85.8575 341° North 373 429 32,000  Level Atlanta Center
09:24AM 34.5439 -85.9075 338° Northwest 373 429 32,000  Level Atlanta Center
09:25AM 34.6475 -85.9528 340° North 378 435 32,000  Level Atlanta Center
09:26AM 34.7450 -86.0056 336° Northwest 378 435 32,000  Level Atlanta Center
09:27AM 34.8506 -86.0511 340° North 385 443 32,000  Level Atlanta Center
09:28AM 34.9417 -86.0986 337° Northwest 390 449 32,000  Level Atlanta Center
09:29AM 35.0431 -86.1469 339° North 395 455 32,000  Level Atlanta Center
09:31AM 35.1972 -86.2231 338° Northwest 399 459 32,000  Level Memphis Center
09:32AM 35.3208 -86.2814 339° North 404 465 32,000  Level Memphis Center
09:33AM 35.4228 -86.3342 337° Northwest 400 460 32,000 60 Level Memphis Center
09:34AM 35.5278 -86.3853 338° Northwest 398 458 32,200 900 Climbing Memphis Center
09:35AM 35.6344 -86.4358 339° North 405 466 33,900 840 Climbing Memphis Center
09:36AM 35.7336 -86.4825 339° North 386 444 34,000  Climbing Memphis Center
09:37AM 35.8306 -86.5353 336° Northwest 377 434 34,000  Level Memphis Center
09:38AM 35.9306 -86.5822 339° North 379 436 34,000  Level Memphis Center
09:40AM 36.1306 -86.6797 339° North 384 442 34,000  Level Indianapolis Center
09:41AM 36.2231 -86.7408 332° Northwest 375 432 34,000  Level Indianapolis Center
09:42AM 36.3303 -86.7947 338° Northwest 377 434 34,000  Level Indianapolis Center
09:43AM 36.4217 -86.8533 333° Northwest 376 433 34,000  Level Indianapolis Center
09:44AM 36.5194 -86.9067 336° Northwest 376 433 34,000  Level Indianapolis Center
09:45AM 36.6081 -86.9675 331° Northwest 366 421 34,000  Level Indianapolis Center
09:46AM 36.7225 -87.0278 337° Northwest 376 433 34,000  Level Memphis Center
09:48AM 36.8150 -87.0900 332° Northwest 376 433 34,000  Level Memphis Center
09:49AM 36.9133 -87.1439 336° Northwest 377 434 34,000  Level Memphis Center
09:50AM 37.0806 -87.2428 335° Northwest 380 437 34,000  Level Kansas City Center
09:51AM 37.1747 -87.3050 332° Northwest 380 437 34,000  Level Kansas City Center
09:52AM 37.2728 -87.3567 337° Northwest 379 436 34,000  Level Kansas City Center
09:53AM 37.3667 -87.4183 332° Northwest 380 437 34,000  Level Kansas City Center
09:54AM 37.4639 -87.4756 335° Northwest 380 437 34,000  Level Kansas City Center
09:55AM 37.5594 -87.5375 333° Northwest 380 437 34,000  Level Kansas City Center
09:56AM 37.6569 -87.5917 336° Northwest 380 437 34,000  Level Kansas City Center
09:57AM 37.7511 -87.6553 332° Northwest 380 437 34,000  Level Kansas City Center
09:58AM 37.8556 -87.6986 342° North 393 452 34,000 -180 Level Kansas City Center
10:00AM 37.9814 -87.7503 342° North 392 451 33,700 -660 Descending Kansas City Center
10:01AM 38.0911 -87.7911 344° North 400 460 32,700 -960 Descending Kansas City Center
10:02AM 38.1961 -87.8392 340° North 400 460 31,800 -960 Descending Kansas City Center
10:03AM 38.2978 -87.8961 336° Northwest 398 458 30,700 -1,020 Descending Kansas City Center
10:04AM 38.3867 -87.9761 325° Northwest 387 445 29,800 -1,020 Descending Kansas City Center
10:05AM 38.4853 -88.0406 333° Northwest 388 447 28,700 -900 Descending Kansas City Center
10:06AM 38.5789 -88.1031 332° Northwest 385 443 28,000 -360 Descending Kansas City Center
10:07AM 38.6678 -88.1717 329° Northwest 373 429 28,000  Level Kansas City Center
10:08AM 38.7592 -88.2364 331° Northwest 373 429 28,000  Level Kansas City Center
10:09AM 38.8486 -88.3047 329° Northwest 373 429 28,000  Level Kansas City Center
10:10AM 38.9389 -88.3675 332° Northwest 372 428 28,000 -180 Level Kansas City Center
10:11AM 39.0250 -88.4361 328° Northwest 370 426 27,700 -660 Descending Kansas City Center
10:12AM 39.1294 -88.5136 330° Northwest 363 418 26,700 -900 Descending Kansas City Center
10:13AM 39.2169 -88.5789 330° Northwest 363 418 25,900 -840 Descending Kansas City Center
10:14AM 39.2989 -88.6389 330° Northwest 359 413 25,100 -780 Descending Kansas City Center
10:15AM 39.3803 -88.7022 329° Northwest 349 402 24,300 -840 Descending Kansas City Center
10:16AM 39.4678 -88.7672 330° Northwest 348 400 23,500 -840 Descending Kansas City Center
10:17AM 39.5464 -88.8278 329° Northwest 335 386 22,600 -1,080 Descending Kansas City Center
10:18AM 39.6250 -88.8844 331° Northwest 328 377 21,400 -1,320 Descending Kansas City Center
10:19AM 39.7006 -88.9461 328° Northwest 324 373 19,900 -1,560 Descending Kansas City Center
10:20AM 39.7814 -89.0039 331° Northwest 330 380 18,200 -1,800 Descending Kansas City Center
10:21AM 39.8700 -89.0736 329° Northwest 314 361 16,300 -1,860 Descending Kansas City Center
10:22AM 39.9386 -89.1267 329° Northwest 296 341 14,500 -2,040 Descending Kansas City Center
10:23AM 40.0078 -89.1789 330° Northwest 290 334 12,200 -1,740 Descending Kansas City Center
10:24AM 40.0753 -89.2350 328° Northwest 290 334 11,000 -600 Descending Kansas City Center
10:25AM 40.1381 -89.2803 331° Northwest 267 307 11,000  Level Chicago Center
10:26AM 40.2006 -89.3281 330° Northwest 260 299 11,000 -540 Level Chicago Center
10:27AM 40.2639 -89.3722 332° Northwest 260 299 9,900 -1,320 Descending Chicago Center
10:28AM 40.3264 -89.4228 328° Northwest 260 299 8,300 -1,620 Descending Chicago Center
10:29AM 40.3903 -89.4631 334° Northwest 259 298 6,600 -1,800 Descending Chicago Center
10:30AM 40.4661 -89.5100 335° Northwest 255 293 4,700 -1,380 Descending Chicago Center
10:32AM 40.5833 -89.5756 337° Northwest 231 266 2,400 -840 Descending Chicago Center
10:33AM 40.6169 -89.6136 319° Northwest 193 222 2,100 -540 Descending Chicago Center
10:34AM 40.6386 -89.6519 307° West 156 180 1,300 -780 Descending Chicago Center
10:35AM 40.6594 -89.6878 307° West 137 158 600 -720 Descending Chicago Center